Time;durP1;ratioP1;P1;durP2;ratioP2;P2;SDS_P1;SDS_P2;PMS_P1;PMS_P2;Temp;Humidity;BMP_temperature;BMP_pressure;BME280_temperature;BME280_humidity;BME280_pressure;Samples;Min_cycle;Max_cycle;Signal;HPM_P1;HPM_P2
2023/03/14 00:02:24;;;;;;;27.77;15.93;;;;;;;;;;4419361;32;318219;-80
2023/03/14 00:04:50;;;;;;;27.97;15.73;;;;;;;;;;4427288;32;317353;-80
2023/03/14 00:07:17;;;;;;;26.60;15.97;;;;;;;;;;4401684;32;318549;-82
2023/03/14 00:09:45;;;;;;;37.87;21.53;;;;;;;;;;4412319;32;318143;-82
2023/03/14 00:12:14;;;;;;;36.53;21.23;;;;;;;;;;4402723;32;318427;-82
2023/03/14 00:14:43;;;;;;;37.13;21.63;;;;;;;;;;4413530;32;317455;-81
2023/03/14 00:17:11;;;;;;;37.03;20.23;;;;;;;;;;4402582;32;317420;-83
2023/03/14 00:19:39;;;;;;;38.70;21.07;;;;;;;;;;4413092;32;325579;-80
2023/03/14 00:22:06;;;;;;;38.67;20.93;;;;;;;;;;4403604;32;317646;-84
2023/03/14 00:24:33;;;;;;;46.30;23.77;;;;;;;;;;4412491;32;318358;-81
2023/03/14 00:27:00;;;;;;;46.40;27.57;;;;;;;;;;4398965;32;318116;-82
2023/03/14 00:29:28;;;;;;;62.10;36.47;;;;;;;;;;4403314;32;317594;-80
2023/03/14 00:31:55;;;;;;;71.40;40.10;;;;;;;;;;4410758;32;333780;-81
2023/03/14 00:34:22;;;;;;;56.37;32.20;;;;;;;;;;4396696;32;318246;-82
2023/03/14 00:36:49;;;;;;;55.07;32.20;;;;;;;;;;4413864;32;318262;-80
2023/03/14 00:39:16;;;;;;;58.17;33.87;;;;;;;;;;4402629;32;317440;-83
2023/03/14 00:41:43;;;;;;;55.50;31.33;;;;;;;;;;4412227;32;318562;-82
2023/03/14 00:44:09;;;;;;;69.00;34.33;;;;;;;;;;4404016;32;317622;-79
2023/03/14 00:46:37;;;;;;;60.47;33.37;;;;;;;;;;4413282;32;317688;-79
2023/03/14 00:49:04;;;;;;;59.57;31.73;;;;;;;;;;4403617;32;317581;-80
2023/03/14 00:51:34;;;;;;;62.67;32.73;;;;;;;;;;4425774;32;318095;-80
2023/03/14 00:54:01;;;;;;;66.90;32.70;;;;;;;;;;4414190;32;341237;-79
2023/03/14 00:56:28;;;;;;;51.10;27.07;;;;;;;;;;4410747;32;318642;-82
2023/03/14 00:58:56;;;;;;;53.93;26.90;;;;;;;;;;4413919;32;318124;-82
2023/03/14 01:01:23;;;;;;;49.40;27.00;;;;;;;;;;4416912;32;326548;-81
2023/03/14 01:03:54;;;;;;;55.23;29.07;;;;;;;;;;4428300;32;317722;-82
2023/03/14 01:06:22;;;;;;;48.73;27.37;;;;;;;;;;4413570;32;337514;-80
2023/03/14 01:08:49;;;;;;;45.83;27.00;;;;;;;;;;4414953;32;317693;-80
2023/03/14 01:11:18;;;;;;;44.90;27.50;;;;;;;;;;4387538;32;317838;-79
2023/03/14 01:13:46;;;;;;;43.13;27.67;;;;;;;;;;4401980;32;317631;-82
2023/03/14 01:16:14;;;;;;;44.33;28.67;;;;;;;;;;4402694;32;318265;-82
2023/03/14 01:18:47;;;;;;;49.13;29.13;;;;;;;;;;4412772;32;318154;-82
2023/03/14 01:21:18;;;;;;;54.70;28.70;;;;;;;;;;4402997;32;318086;-85
2023/03/14 01:23:46;;;;;;;47.00;27.77;;;;;;;;;;4412263;32;327466;-82
2023/03/14 01:26:15;;;;;;;46.03;27.80;;;;;;;;;;4402668;32;318130;-83
2023/03/14 01:28:42;;;;;;;52.73;27.57;;;;;;;;;;4412675;32;317368;-81
2023/03/14 01:31:11;;;;;;;39.53;25.20;;;;;;;;;;4399384;32;351719;-81
2023/03/14 01:33:38;;;;;;;44.77;25.73;;;;;;;;;;4412349;32;317521;-81
2023/03/14 01:36:07;;;;;;;67.13;37.93;;;;;;;;;;4401242;32;318282;-81
2023/03/14 01:38:36;;;;;;;50.97;27.13;;;;;;;;;;4412247;32;317701;-81
2023/03/14 01:41:04;;;;;;;49.03;25.73;;;;;;;;;;4411358;32;317677;-80
2023/03/14 01:43:34;;;;;;;42.93;23.63;;;;;;;;;;4398658;32;418684;-82
2023/03/14 01:46:24;;;;;;;38.70;21.37;;;;;;;;;;4412043;32;318328;-83
2023/03/14 01:49:02;;;;;;;38.43;21.40;;;;;;;;;;4385491;32;417662;-82
2023/03/14 01:51:33;;;;;;;36.73;19.93;;;;;;;;;;4380261;32;318560;-80
2023/03/14 01:54:06;;;;;;;42.57;20.33;;;;;;;;;;4397079;32;318144;-80
2023/03/14 01:56:33;;;;;;;35.90;20.87;;;;;;;;;;4399575;32;417743;-82
2023/03/14 01:59:04;;;;;;;29.13;16.73;;;;;;;;;;4411375;32;318130;-83
2023/03/14 02:01:31;;;;;;;31.53;17.13;;;;;;;;;;4401263;32;417055;-85
2023/03/14 02:04:01;;;;;;;38.63;21.37;;;;;;;;;;4426494;32;318347;-81
2023/03/14 02:06:34;;;;;;;29.07;18.57;;;;;;;;;;4414546;32;318352;-80
2023/03/14 02:09:03;;;;;;;37.20;19.00;;;;;;;;;;4412601;32;317582;-81
2023/03/14 02:11:31;;;;;;;35.17;19.03;;;;;;;;;;4399474;32;417759;-81
2023/03/14 02:13:59;;;;;;;36.43;18.97;;;;;;;;;;4426090;32;317429;-81
2023/03/14 02:16:26;;;;;;;28.70;15.87;;;;;;;;;;4416243;32;317719;-81
2023/03/14 02:18:55;;;;;;;29.67;16.60;;;;;;;;;;4426310;32;318526;-83
2023/03/14 02:21:27;;;;;;;27.33;16.10;;;;;;;;;;4417439;32;318240;-81
2023/03/14 02:24:04;;;;;;;23.17;14.27;;;;;;;;;;4427540;32;318046;-81
2023/03/14 02:26:37;;;;;;;32.67;16.40;;;;;;;;;;4414245;32;417578;-81
2023/03/14 02:29:05;;;;;;;37.87;21.13;;;;;;;;;;4427356;32;317196;-81
2023/03/14 02:31:32;;;;;;;40.43;21.73;;;;;;;;;;4414138;32;417511;-82
2023/03/14 02:33:59;;;;;;;45.70;26.03;;;;;;;;;;4427272;32;317866;-82
2023/03/14 02:36:27;;;;;;;62.10;29.23;;;;;;;;;;4416281;32;318239;-82
2023/03/14 02:38:59;;;;;;;56.53;30.17;;;;;;;;;;4427432;32;318505;-84
2023/03/14 02:41:26;;;;;;;66.07;35.33;;;;;;;;;;4416929;32;317726;-81
2023/03/14 02:43:53;;;;;;;72.27;40.77;;;;;;;;;;4417046;32;318600;-80
2023/03/14 02:46:22;;;;;;;80.67;42.10;;;;;;;;;;4401778;32;318308;-83
2023/03/14 02:48:52;;;;;;;76.83;40.03;;;;;;;;;;4410597;32;317499;-83
2023/03/14 02:51:19;;;;;;;72.93;37.13;;;;;;;;;;4400584;32;318022;-81
2023/03/14 02:53:47;;;;;;;62.23;34.33;;;;;;;;;;4411720;32;318060;-82
2023/03/14 02:56:14;;;;;;;57.17;34.57;;;;;;;;;;4402039;32;318590;-82
2023/03/14 02:58:40;;;;;;;70.03;35.17;;;;;;;;;;4394014;32;318367;-81
2023/03/14 03:01:07;;;;;;;64.20;34.53;;;;;;;;;;4386941;32;318111;-81
2023/03/14 03:03:36;;;;;;;70.63;35.10;;;;;;;;;;4396370;32;318201;-81
2023/03/14 03:06:03;;;;;;;68.73;35.73;;;;;;;;;;4406655;32;318343;-81
2023/03/14 03:08:32;;;;;;;67.17;34.47;;;;;;;;;;4415779;32;417677;-83
2023/03/14 03:11:00;;;;;;;58.60;32.00;;;;;;;;;;4419480;32;318192;-84
2023/03/14 03:13:26;;;;;;;57.73;32.17;;;;;;;;;;4404097;32;318177;-83
2023/03/14 03:15:54;;;;;;;65.67;32.63;;;;;;;;;;4414400;32;317691;-81
2023/03/14 03:18:21;;;;;;;54.03;29.80;;;;;;;;;;4404412;32;317714;-84
2023/03/14 03:20:49;;;;;;;62.23;31.57;;;;;;;;;;4414257;32;318389;-83
2023/03/14 03:23:16;;;;;;;65.57;32.60;;;;;;;;;;4404491;32;318276;-82
2023/03/14 03:25:42;;;;;;;61.60;34.00;;;;;;;;;;4414312;32;318230;-80
2023/03/14 03:28:09;;;;;;;54.43;31.30;;;;;;;;;;4404438;32;317580;-80
2023/03/14 03:30:39;;;;;;;61.70;33.10;;;;;;;;;;4412775;32;318863;-82
2023/03/14 03:33:06;;;;;;;60.90;30.70;;;;;;;;;;4402203;32;318235;-80
2023/03/14 03:35:33;;;;;;;55.80;29.30;;;;;;;;;;4415328;32;317670;-81
2023/03/14 03:38:01;;;;;;;51.00;30.40;;;;;;;;;;4414063;32;318219;-80
2023/03/14 03:40:28;;;;;;;54.90;28.93;;;;;;;;;;4415001;32;317727;-81
2023/03/14 03:42:55;;;;;;;54.87;32.13;;;;;;;;;;4429433;32;317553;-82
2023/03/14 03:45:21;;;;;;;56.30;31.67;;;;;;;;;;4417270;32;318576;-83
2023/03/14 03:47:48;;;;;;;52.60;30.43;;;;;;;;;;4428118;32;317627;-81
2023/03/14 03:50:15;;;;;;;44.43;23.43;;;;;;;;;;4419408;32;317640;-83
2023/03/14 03:52:41;;;;;;;46.07;22.17;;;;;;;;;;4429097;32;318386;-82
2023/03/14 03:55:10;;;;;;;36.27;17.53;;;;;;;;;;4409440;32;317670;-84
2023/03/14 03:57:37;;;;;;;32.10;16.43;;;;;;;;;;4412637;32;318144;-83
2023/03/14 04:00:05;;;;;;;25.50;15.47;;;;;;;;;;4413931;32;318300;-81
2023/03/14 04:02:33;;;;;;;31.97;16.33;;;;;;;;;;4400684;32;417152;-82
2023/03/14 04:05:00;;;;;;;28.10;14.97;;;;;;;;;;4413000;32;318665;-84
2023/03/14 04:07:26;;;;;;;29.07;16.27;;;;;;;;;;4411924;32;318395;-84
2023/03/14 04:09:53;;;;;;;57.30;26.33;;;;;;;;;;4419358;32;318264;-81
2023/03/14 04:12:21;;;;;;;58.70;27.73;;;;;;;;;;4401659;32;352673;-80
2023/03/14 04:14:48;;;;;;;45.50;24.90;;;;;;;;;;4412440;32;317674;-80
2023/03/14 04:17:15;;;;;;;38.63;23.27;;;;;;;;;;4403990;32;317548;-83
2023/03/14 04:19:42;;;;;;;47.30;22.80;;;;;;;;;;4413368;32;318203;-83
2023/03/14 04:22:09;;;;;;;41.80;22.23;;;;;;;;;;4403913;32;318218;-83
2023/03/14 04:24:36;;;;;;;39.87;23.07;;;;;;;;;;4413486;32;317735;-82
2023/03/14 04:27:03;;;;;;;50.83;25.93;;;;;;;;;;4413340;32;317639;-81
2023/03/14 04:29:31;;;;;;;61.40;30.87;;;;;;;;;;4399848;32;417674;-82
2023/03/14 04:31:57;;;;;;;91.30;39.37;;;;;;;;;;4413282;32;318243;-82
2023/03/14 04:34:25;;;;;;;93.23;42.10;;;;;;;;;;4402111;32;318206;-80
2023/03/14 04:36:52;;;;;;;73.70;35.57;;;;;;;;;;4411466;32;337027;-80
2023/03/14 04:39:19;;;;;;;89.17;42.40;;;;;;;;;;4402321;32;318342;-82
2023/03/14 04:41:46;;;;;;;65.63;34.87;;;;;;;;;;4413358;32;318345;-80
2023/03/14 04:44:12;;;;;;;64.17;34.50;;;;;;;;;;4402983;32;318338;-80
2023/03/14 04:46:40;;;;;;;59.53;29.80;;;;;;;;;;4412077;32;318232;-83
2023/03/14 04:49:07;;;;;;;40.40;22.67;;;;;;;;;;4390797;32;317721;-81
2023/03/14 04:51:34;;;;;;;43.97;26.37;;;;;;;;;;4407475;32;317630;-81
2023/03/14 04:54:01;;;;;;;45.47;26.40;;;;;;;;;;4397548;32;318303;-83
2023/03/14 04:56:28;;;;;;;38.37;24.93;;;;;;;;;;4387735;32;318372;-83
2023/03/14 04:58:55;;;;;;;53.87;32.30;;;;;;;;;;4394408;32;317387;-81
2023/03/14 05:01:22;;;;;;;58.17;36.63;;;;;;;;;;4386817;32;318239;-80
2023/03/14 05:03:50;;;;;;;81.80;45.07;;;;;;;;;;4397880;32;318189;-82
2023/03/14 05:06:17;;;;;;;70.67;38.03;;;;;;;;;;4395796;32;339679;-85
2023/03/14 05:08:44;;;;;;;68.57;36.17;;;;;;;;;;4413169;32;317786;-81
2023/03/14 05:11:12;;;;;;;73.23;45.30;;;;;;;;;;4389593;32;318045;-80
2023/03/14 05:13:39;;;;;;;86.17;53.90;;;;;;;;;;4398731;32;318109;-83
2023/03/14 05:16:08;;;;;;;134.73;80.50;;;;;;;;;;4389470;32;317820;-81
2023/03/14 05:18:35;;;;;;;124.43;67.93;;;;;;;;;;4401961;32;318549;-79
2023/03/14 05:21:04;;;;;;;113.00;64.93;;;;;;;;;;4401107;32;318655;-80
2023/03/14 05:23:31;;;;;;;77.90;44.17;;;;;;;;;;4387899;32;418025;-80
2023/03/14 05:25:58;;;;;;;55.77;33.33;;;;;;;;;;4401327;32;318358;-80
2023/03/14 05:28:25;;;;;;;56.97;31.10;;;;;;;;;;4390375;32;318088;-82
2023/03/14 05:30:52;;;;;;;45.73;20.40;;;;;;;;;;4400106;32;317425;-81
2023/03/14 05:33:18;;;;;;;32.60;20.10;;;;;;;;;;4402293;32;318088;-80
2023/03/14 05:35:45;;;;;;;30.83;21.50;;;;;;;;;;4414295;32;317548;-80
2023/03/14 05:38:13;;;;;;;34.33;19.17;;;;;;;;;;4405474;32;318264;-80
2023/03/14 05:40:40;;;;;;;42.60;18.47;;;;;;;;;;4415152;32;321565;-81
2023/03/14 05:43:08;;;;;;;32.53;19.53;;;;;;;;;;4402935;32;393736;-83
2023/03/14 05:45:35;;;;;;;30.83;19.80;;;;;;;;;;4412054;32;318546;-82
2023/03/14 05:48:02;;;;;;;36.10;21.83;;;;;;;;;;4410916;32;318445;-80
2023/03/14 05:50:30;;;;;;;55.67;30.87;;;;;;;;;;4412913;32;419299;-81
2023/03/14 05:52:57;;;;;;;53.93;31.60;;;;;;;;;;4425587;32;324561;-81
2023/03/14 05:55:26;;;;;;;58.07;27.73;;;;;;;;;;4417100;32;318262;-80
2023/03/14 05:57:54;;;;;;;57.37;28.07;;;;;;;;;;4426382;32;318839;-82
2023/03/14 06:00:21;;;;;;;64.93;29.03;;;;;;;;;;4415949;32;318162;-82
2023/03/14 06:02:49;;;;;;;68.80;33.73;;;;;;;;;;4424880;32;336602;-85
2023/03/14 06:05:16;;;;;;;61.53;32.07;;;;;;;;;;4412431;32;318188;-84
2023/03/14 06:07:42;;;;;;;83.43;35.37;;;;;;;;;;4406644;32;317581;-82
2023/03/14 06:10:10;;;;;;;69.73;37.53;;;;;;;;;;4400319;32;318096;-83
2023/03/14 06:12:39;;;;;;;70.17;36.83;;;;;;;;;;4409749;32;318080;-81
2023/03/14 06:15:07;;;;;;;70.90;39.00;;;;;;;;;;4400301;32;318447;-84
2023/03/14 06:17:34;;;;;;;59.00;30.83;;;;;;;;;;4411547;32;317669;-83
2023/03/14 06:20:00;;;;;;;59.67;30.30;;;;;;;;;;4411085;32;318725;-83
2023/03/14 06:22:27;;;;;;;55.13;30.63;;;;;;;;;;4400538;32;318180;-83
2023/03/14 06:24:54;;;;;;;53.07;28.97;;;;;;;;;;4410913;32;318603;-82
2023/03/14 06:27:21;;;;;;;51.10;28.10;;;;;;;;;;4400117;32;318312;-77
2023/03/14 06:29:49;;;;;;;49.80;26.93;;;;;;;;;;4425626;32;317652;-76
2023/03/14 06:32:17;;;;;;;49.50;26.07;;;;;;;;;;4415218;32;318363;-80
2023/03/14 06:34:44;;;;;;;36.60;22.13;;;;;;;;;;4424863;32;318515;-80
2023/03/14 06:37:11;;;;;;;43.53;22.20;;;;;;;;;;4415239;32;323171;-79
2023/03/14 06:39:38;;;;;;;37.37;22.00;;;;;;;;;;4426589;32;318693;-79
2023/03/14 06:42:05;;;;;;;32.00;19.00;;;;;;;;;;4403186;32;318360;-80
2023/03/14 06:44:32;;;;;;;32.87;19.43;;;;;;;;;;4416083;32;318557;-76
2023/03/14 06:47:00;;;;;;;40.83;22.90;;;;;;;;;;4414181;32;318261;-81
2023/03/14 06:49:28;;;;;;;192.73;76.40;;;;;;;;;;4404569;32;318441;-83
2023/03/14 06:51:56;;;;;;;38.97;22.43;;;;;;;;;;4414666;32;319631;-77
2023/03/14 06:54:22;;;;;;;41.70;21.47;;;;;;;;;;4394316;32;317655;-80
2023/03/14 06:56:49;;;;;;;38.60;25.23;;;;;;;;;;4413398;32;327476;-85
2023/03/14 06:59:17;;;;;;;30.10;17.40;;;;;;;;;;4403505;32;318405;-79
2023/03/14 07:01:44;;;;;;;37.07;18.20;;;;;;;;;;4414244;32;318378;-81
2023/03/14 07:04:12;;;;;;;33.80;18.40;;;;;;;;;;4404637;32;318683;-79
2023/03/14 07:06:43;;;;;;;36.57;17.33;;;;;;;;;;4413273;32;334356;-81
2023/03/14 07:09:11;;;;;;;29.13;17.97;;;;;;;;;;4404928;32;318503;-81
2023/03/14 07:11:38;;;;;;;26.33;16.27;;;;;;;;;;4411177;32;317727;-80
2023/03/14 07:14:05;;;;;;;24.47;16.33;;;;;;;;;;4403940;32;318219;-83
2023/03/14 07:16:32;;;;;;;23.03;15.00;;;;;;;;;;4412542;32;318760;-81
2023/03/14 07:19:00;;;;;;;28.07;15.87;;;;;;;;;;4411219;32;332128;-82
2023/03/14 07:21:29;;;;;;;29.30;16.30;;;;;;;;;;4403398;32;318348;-84
2023/03/14 07:23:55;;;;;;;26.57;14.77;;;;;;;;;;4412573;32;317610;-82
2023/03/14 07:26:22;;;;;;;33.87;17.33;;;;;;;;;;4401255;32;356348;-81
2023/03/14 07:28:49;;;;;;;32.80;21.23;;;;;;;;;;4395042;32;317827;-81
2023/03/14 07:31:16;;;;;;;40.00;23.80;;;;;;;;;;4387688;32;318799;-81
2023/03/14 07:33:42;;;;;;;45.87;28.10;;;;;;;;;;4396773;32;319230;-82
2023/03/14 07:36:10;;;;;;;45.67;27.30;;;;;;;;;;4386571;32;368778;-82
2023/03/14 07:38:38;;;;;;;37.60;23.40;;;;;;;;;;4397997;32;317579;-83
2023/03/14 07:41:07;;;;;;;38.33;21.63;;;;;;;;;;4402945;32;318566;-84
2023/03/14 07:43:34;;;;;;;31.60;18.90;;;;;;;;;;4411999;32;317770;-83
2023/03/14 07:46:01;;;;;;;30.83;18.53;;;;;;;;;;4412716;32;317893;-83
2023/03/14 07:48:29;;;;;;;26.70;15.93;;;;;;;;;;4402276;32;318229;-83
2023/03/14 07:50:56;;;;;;;24.53;15.30;;;;;;;;;;4409355;32;317901;-81
2023/03/14 07:53:24;;;;;;;21.50;14.70;;;;;;;;;;4402757;32;318783;-82
2023/03/14 07:55:53;;;;;;;30.60;17.10;;;;;;;;;;4412453;32;319479;-81
2023/03/14 07:58:21;;;;;;;37.23;18.73;;;;;;;;;;4402493;32;317679;-81
2023/03/14 08:00:48;;;;;;;33.53;19.27;;;;;;;;;;4391628;32;339218;-84
2023/03/14 08:03:16;;;;;;;32.10;17.73;;;;;;;;;;4399331;32;343268;-81
2023/03/14 08:05:43;;;;;;;23.97;13.40;;;;;;;;;;4418954;32;318639;-82
2023/03/14 08:08:10;;;;;;;27.53;14.53;;;;;;;;;;4417767;32;318727;-81
2023/03/14 08:10:37;;;;;;;23.03;14.40;;;;;;;;;;4399877;32;318660;-84
2023/03/14 08:13:05;;;;;;;19.80;13.17;;;;;;;;;;4409231;32;318514;-81
2023/03/14 08:15:33;;;;;;;31.00;16.63;;;;;;;;;;4356858;32;418304;-81
2023/03/14 08:18:00;;;;;;;29.30;15.40;;;;;;;;;;4409757;32;318691;-82
2023/03/14 08:20:29;;;;;;;18.13;11.93;;;;;;;;;;4403124;32;319859;-81
2023/03/14 08:22:58;;;;;;;17.10;11.33;;;;;;;;;;4416246;32;318732;-84
2023/03/14 08:25:25;;;;;;;25.20;11.13;;;;;;;;;;4410445;32;319196;-81
2023/03/14 08:27:53;;;;;;;14.33;9.87;;;;;;;;;;4426632;32;318910;-83
2023/03/14 08:30:23;;;;;;;16.37;10.63;;;;;;;;;;4403762;32;318283;-88
2023/03/14 08:32:50;;;;;;;18.63;11.17;;;;;;;;;;4413579;32;318770;-84
2023/03/14 08:35:17;;;;;;;16.80;10.87;;;;;;;;;;4387987;32;319303;-87
2023/03/14 08:37:43;;;;;;;24.60;12.30;;;;;;;;;;4411513;32;318864;-82
2023/03/14 08:40:11;;;;;;;17.33;10.27;;;;;;;;;;4401197;32;318735;-84
2023/03/14 08:42:39;;;;;;;16.00;9.90;;;;;;;;;;4412466;32;319179;-85
2023/03/14 08:45:07;;;;;;;18.97;10.30;;;;;;;;;;4401479;32;318336;-83
2023/03/14 08:47:38;;;;;;;21.30;10.40;;;;;;;;;;4412112;32;318666;-85
2023/03/14 08:50:06;;;;;;;23.37;11.67;;;;;;;;;;4401389;32;318645;-85
2023/03/14 08:52:33;;;;;;;17.63;9.87;;;;;;;;;;4411209;32;326591;-85
2023/03/14 08:55:00;;;;;;;20.43;9.77;;;;;;;;;;4412221;32;318210;-82
2023/03/14 08:57:27;;;;;;;18.37;8.27;;;;;;;;;;4402034;32;318156;-82
2023/03/14 08:59:56;;;;;;;17.10;9.40;;;;;;;;;;4412887;32;318092;-87
2023/03/14 09:02:24;;;;;;;15.13;9.83;;;;;;;;;;4399649;32;359086;-79
2023/03/14 09:04:53;;;;;;;12.70;8.77;;;;;;;;;;4411932;32;318229;-85
2023/03/14 09:07:20;;;;;;;15.80;8.50;;;;;;;;;;4381089;32;317718;-80
2023/03/14 09:09:47;;;;;;;14.20;8.40;;;;;;;;;;4414033;32;318278;-80
2023/03/14 09:12:14;;;;;;;8.57;6.37;;;;;;;;;;4410826;32;317757;-83
2023/03/14 09:14:40;;;;;;;12.73;7.17;;;;;;;;;;4426369;32;316710;-81
2023/03/14 09:17:07;;;;;;;7.47;5.03;;;;;;;;;;4409353;32;390641;-81
2023/03/14 09:19:34;;;;;;;14.07;8.37;;;;;;;;;;4409695;32;317551;-83
2023/03/14 09:22:03;;;;;;;15.20;7.70;;;;;;;;;;4411875;32;318073;-85
2023/03/14 09:24:30;;;;;;;14.63;7.20;;;;;;;;;;4401711;32;318317;-85
2023/03/14 09:26:57;;;;;;;9.77;6.03;;;;;;;;;;4411352;32;318632;-83
2023/03/14 09:29:24;;;;;;;9.53;6.23;;;;;;;;;;4400547;32;316629;-83
2023/03/14 09:31:51;;;;;;;10.43;7.03;;;;;;;;;;4414237;32;317270;-86
2023/03/14 09:34:18;;;;;;;25.00;17.30;;;;;;;;;;4415811;32;318709;-84
2023/03/14 09:36:45;;;;;;;9.03;5.90;;;;;;;;;;4426950;32;317287;-85
2023/03/14 09:39:13;;;;;;;14.13;6.23;;;;;;;;;;4416890;32;317563;-86
2023/03/14 09:41:42;;;;;;;7.50;5.47;;;;;;;;;;4426242;32;318195;-83
2023/03/14 09:44:14;;;;;;;9.53;5.53;;;;;;;;;;4416433;32;349073;-82
2023/03/14 09:46:43;;;;;;;8.07;6.03;;;;;;;;;;4426664;32;317290;-80
2023/03/14 09:49:14;;;;;;;16.80;8.10;;;;;;;;;;4410464;32;316855;-82
2023/03/14 09:51:43;;;;;;;17.23;8.43;;;;;;;;;;4425528;32;316915;-83
2023/03/14 09:54:25;;;;;;;12.90;6.67;;;;;;;;;;4409317;32;318275;-81
2023/03/14 09:56:52;;;;;;;15.80;8.93;;;;;;;;;;4406129;32;316686;-83
2023/03/14 09:59:20;;;;;;;14.77;7.30;;;;;;;;;;4416279;32;317518;-82
2023/03/14 10:01:46;;;;;;;12.80;7.50;;;;;;;;;;4424980;32;317380;-82
2023/03/14 10:04:22;;;;;;;12.97;7.20;;;;;;;;;;4414678;32;318442;-81
2023/03/14 10:06:49;;;;;;;14.20;8.50;;;;;;;;;;4412564;32;317479;-85
2023/03/14 10:09:24;;;;;;;8.83;6.30;;;;;;;;;;4401109;32;318542;-82
2023/03/14 10:11:56;;;;;;;17.20;7.97;;;;;;;;;;4409737;32;316893;-84
2023/03/14 10:14:34;;;;;;;17.30;8.27;;;;;;;;;;4403475;32;325063;-83
2023/03/14 10:17:11;;;;;;;8.20;5.90;;;;;;;;;;4417808;32;317578;-91
2023/03/14 10:19:51;;;;;;;8.83;6.07;;;;;;;;;;4416939;32;416348;-85
2023/03/14 10:22:18;;;;;;;15.27;7.53;;;;;;;;;;4403618;32;316700;-87
2023/03/14 10:24:53;;;;;;;16.03;7.17;;;;;;;;;;4424532;32;318020;-87
2023/03/14 10:27:22;;;;;;;11.40;5.73;;;;;;;;;;4421707;32;318214;-94
2023/03/14 10:29:54;;;;;;;11.77;6.33;;;;;;;;;;4414807;32;342762;-86
2023/03/14 10:32:23;;;;;;;12.17;7.03;;;;;;;;;;4404425;32;318286;-90
2023/03/14 10:35:07;;;;;;;7.80;5.50;;;;;;;;;;4415833;32;317206;-91
2023/03/14 10:37:34;;;;;;;16.97;7.50;;;;;;;;;;4371632;32;419286;-88
2023/03/14 10:40:05;;;;;;;10.00;5.77;;;;;;;;;;4370980;32;317445;-91
2023/03/14 10:42:34;;;;;;;10.83;5.93;;;;;;;;;;4380509;32;415921;-82
2023/03/14 10:45:05;;;;;;;16.17;7.57;;;;;;;;;;4397821;32;318386;-86
2023/03/14 10:47:33;;;;;;;9.03;6.70;;;;;;;;;;4400443;32;417154;-80
2023/03/14 10:50:26;;;;;;;8.70;5.53;;;;;;;;;;4413637;32;317069;-81
2023/03/14 10:52:54;;;;;;;13.13;6.50;;;;;;;;;;4401586;32;417704;-79
2023/03/14 10:55:26;;;;;;;8.87;5.93;;;;;;;;;;4402664;32;335382;-81
2023/03/14 10:57:53;;;;;;;7.57;5.03;;;;;;;;;;4397804;32;331039;-80
2023/03/14 11:00:23;;;;;;;9.97;5.30;;;;;;;;;;4403929;32;317180;-81
2023/03/14 11:03:06;;;;;;;4.43;3.63;;;;;;;;;;4412079;32;324884;-84
2023/03/14 11:05:41;;;;;;;12.83;5.17;;;;;;;;;;4401235;32;416322;-82
2023/03/14 11:08:12;;;;;;;8.17;5.20;;;;;;;;;;4403904;32;317480;-90
2023/03/14 11:10:42;;;;;;;7.10;4.80;;;;;;;;;;4420371;32;317046;-84
2023/03/14 11:13:18;;;;;;;7.33;4.80;;;;;;;;;;4419571;32;317101;-85
2023/03/14 11:15:58;;;;;;;10.63;5.93;;;;;;;;;;4429437;32;316519;-81
2023/03/14 11:18:52;;;;;;;7.30;4.70;;;;;;;;;;4415281;32;318224;-83
2023/03/14 11:21:25;;;;;;;8.70;5.20;;;;;;;;;;4393951;32;316592;-80
2023/03/14 11:24:04;;;;;;;8.83;4.30;;;;;;;;;;4427032;32;317350;-83
2023/03/14 11:26:36;;;;;;;10.83;5.80;;;;;;;;;;4397696;32;417768;-82
2023/03/14 11:29:17;;;;;;;12.43;7.60;;;;;;;;;;4413864;32;318237;-83
2023/03/14 11:31:46;;;;;;;9.30;6.03;;;;;;;;;;4401093;32;419298;-81
2023/03/14 11:34:17;;;;;;;11.90;6.10;;;;;;;;;;4403367;32;316448;-82
2023/03/14 11:36:49;;;;;;;26.23;16.27;;;;;;;;;;4411380;32;318097;-84
2023/03/14 11:39:17;;;;;;;17.07;10.70;;;;;;;;;;4403141;32;319299;-82
2023/03/14 11:41:48;;;;;;;10.20;5.67;;;;;;;;;;4413363;32;319478;-82
2023/03/14 11:44:20;;;;;;;8.00;4.73;;;;;;;;;;4404036;32;318200;-82
2023/03/14 11:46:52;;;;;;;6.77;4.90;;;;;;;;;;4414082;32;317540;-84
2023/03/14 11:49:30;;;;;;;11.98;5.40;;;;;;;;;;4404724;32;317028;-82
2023/03/14 11:52:00;;;;;;;10.30;6.07;;;;;;;;;;4419173;32;317888;-81
2023/03/14 11:54:36;;;;;;;8.30;6.72;;;;;;;;;;4410020;32;317792;-82
2023/03/14 11:57:11;;;;;;;10.93;5.18;;;;;;;;;;4420050;32;317098;-81
2023/03/14 11:59:46;;;;;;;5.28;3.95;;;;;;;;;;4405437;32;417180;-81
2023/03/14 12:02:23;;;;;;;11.68;5.32;;;;;;;;;;4404406;32;316959;-81
2023/03/14 12:05:28;;;;;;;12.90;6.93;;;;;;;;;;4415869;32;317882;-81
2023/03/14 12:08:20;;;;;;;9.75;5.25;;;;;;;;;;4395471;32;419562;-83
2023/03/14 12:10:51;;;;;;;6.53;4.72;;;;;;;;;;4398584;32;390001;-82
2023/03/14 12:13:20;;;;;;;8.63;4.15;;;;;;;;;;4408138;32;316433;-82
2023/03/14 12:15:50;;;;;;;7.93;5.25;;;;;;;;;;4419171;32;316408;-82
2023/03/14 12:18:22;;;;;;;8.10;5.80;;;;;;;;;;4404722;32;317039;-82
2023/03/14 12:20:55;;;;;;;9.02;4.90;;;;;;;;;;4419067;32;317259;-82
2023/03/14 12:23:22;;;;;;;5.90;4.20;;;;;;;;;;4418694;32;316599;-82
2023/03/14 12:26:09;;;;;;;9.45;4.15;;;;;;;;;;4429334;32;316556;-85
2023/03/14 12:28:37;;;;;;;28.08;10.18;;;;;;;;;;4415859;32;418019;-80
2023/03/14 12:31:36;;;;;;;9.73;4.20;;;;;;;;;;4427882;32;319087;-82
2023/03/14 12:34:04;;;;;;;10.20;4.68;;;;;;;;;;4417705;32;416622;-83
2023/03/14 12:36:54;;;;;;;5.72;4.12;;;;;;;;;;4399297;32;418596;-82
2023/03/14 12:39:26;;;;;;;12.05;8.05;;;;;;;;;;4402760;32;317562;-82
2023/03/14 12:42:01;;;;;;;11.50;5.22;;;;;;;;;;4410514;32;317651;-82
2023/03/14 12:44:47;;;;;;;20.35;6.55;;;;;;;;;;4401795;32;330374;-83
2023/03/14 12:47:44;;;;;;;6.43;3.35;;;;;;;;;;4402376;32;318101;-82
2023/03/14 12:50:20;;;;;;;4.60;2.97;;;;;;;;;;4368423;32;316977;-82
2023/03/14 12:53:14;;;;;;;8.85;3.97;;;;;;;;;;4413379;32;316493;-82
2023/03/14 12:55:47;;;;;;;7.47;4.50;;;;;;;;;;4398364;32;417518;-82
2023/03/14 12:58:21;;;;;;;7.07;3.80;;;;;;;;;;4401509;32;326598;-82
2023/03/14 13:00:56;;;;;;;8.13;5.10;;;;;;;;;;4412150;32;317177;-82
2023/03/14 13:03:27;;;;;;;3.95;3.15;;;;;;;;;;4401952;32;345946;-82
2023/03/14 13:05:55;;;;;;;4.87;3.33;;;;;;;;;;4413039;32;317053;-82
2023/03/14 13:08:37;;;;;;;10.02;4.68;;;;;;;;;;4403068;32;316834;-82
2023/03/14 13:11:08;;;;;;;11.77;4.30;;;;;;;;;;4416680;32;318450;-84
2023/03/14 13:13:36;;;;;;;4.78;3.12;;;;;;;;;;4400055;32;420071;-82
2023/03/14 13:16:05;;;;;;;3.65;3.00;;;;;;;;;;4412304;32;316432;-85
2023/03/14 13:18:38;;;;;;;4.78;3.15;;;;;;;;;;4400339;32;416406;-82
2023/03/14 13:21:11;;;;;;;10.75;3.90;;;;;;;;;;4403283;32;317309;-84
2023/03/14 13:23:39;;;;;;;6.47;4.05;;;;;;;;;;4412936;32;318043;-81
2023/03/14 13:26:12;;;;;;;14.20;6.57;;;;;;;;;;4402669;32;316667;-86
2023/03/14 13:28:40;;;;;;;5.93;3.10;;;;;;;;;;4412917;32;318299;-83
2023/03/14 13:31:22;;;;;;;4.15;2.97;;;;;;;;;;4403069;32;316914;-85
2023/03/14 13:33:57;;;;;;;9.77;4.12;;;;;;;;;;4412933;32;316716;-83
2023/03/14 13:36:24;;;;;;;12.18;5.00;;;;;;;;;;4381202;32;316591;-85
2023/03/14 13:53:13;;;;;;;5.70;3.47;;;;;;;;;;4466871;31;20267;-90
2023/03/14 13:55:40;;;;;;;8.48;5.22;;;;;;;;;;4444850;32;315835;-90
2023/03/14 13:58:20;;;;;;;6.30;5.00;;;;;;;;;;4434402;32;316488;-91
2023/03/14 14:00:55;;;;;;;7.87;3.92;;;;;;;;;;4442985;32;348568;-89
2023/03/14 14:03:23;;;;;;;5.87;4.43;;;;;;;;;;4435164;32;317520;-89
2023/03/14 14:05:50;;;;;;;4.65;3.97;;;;;;;;;;4443570;32;316933;-89
2023/03/14 14:08:18;;;;;;;7.00;4.20;;;;;;;;;;4434120;32;317375;-90
2023/03/14 14:10:48;;;;;;;9.48;4.62;;;;;;;;;;4443725;32;317222;-92
2023/03/14 14:13:18;;;;;;;6.72;4.37;;;;;;;;;;4433779;32;316823;-90
2023/03/14 14:15:48;;;;;;;6.18;4.22;;;;;;;;;;4444891;32;317045;-92
2023/03/14 14:18:18;;;;;;;8.23;3.28;;;;;;;;;;4434802;32;317081;-88
2023/03/14 14:20:50;;;;;;;4.90;3.17;;;;;;;;;;4444515;32;317498;-91
2023/03/14 14:23:24;;;;;;;6.22;3.50;;;;;;;;;;4433437;32;317552;-91
2023/03/14 14:25:52;;;;;;;6.00;3.85;;;;;;;;;;4444662;32;317116;-90
2023/03/14 14:28:26;;;;;;;8.23;6.55;;;;;;;;;;4433282;32;317227;-89
2023/03/14 14:31:05;;;;;;;6.72;4.43;;;;;;;;;;4443633;32;317354;-91
2023/03/14 14:33:42;;;;;;;8.85;4.15;;;;;;;;;;4431658;32;416461;-91
2023/03/14 14:36:17;;;;;;;12.60;6.10;;;;;;;;;;4433663;32;317405;-91
2023/03/14 14:38:52;;;;;;;6.93;3.75;;;;;;;;;;4443751;32;318491;-89
2023/03/14 14:41:19;;;;;;;8.63;3.70;;;;;;;;;;4434152;32;317193;-91